Time;durP1;ratioP1;P1;durP2;ratioP2;P2;SDS_P1;SDS_P2;PMS_P1;PMS_P2;Temp;Humidity;BMP_temperature;BMP_pressure;BME280_temperature;BME280_humidity;BME280_pressure;Samples;Min_cycle;Max_cycle;Signal;HPM_P1;HPM_P2
2021/12/07 00:01:32;;;;;;;8.30;4.03;;;-4.90;99.90;;;;;;5040540;28;20406;-76
2021/12/07 00:03:59;;;;;;;15.00;4.47;;;-4.80;99.90;;;;;;5041509;28;20409;-78
2021/12/07 00:06:25;;;;;;;8.33;3.73;;;-7.00;99.90;;;;;;5038858;28;20410;-79
2021/12/07 00:08:54;;;;;;;9.23;4.63;;;-4.50;99.90;;;;;;5036975;28;20404;-78
2021/12/07 00:11:23;;;;;;;7.93;4.30;;;-4.80;99.90;;;;;;5036823;28;20454;-77
2021/12/07 00:13:50;;;;;;;8.20;5.00;;;-4.70;99.90;;;;;;5035719;28;20410;-77
2021/12/07 00:16:18;;;;;;;11.63;4.17;;;-5.90;99.90;;;;;;5036938;28;20424;-80
2021/12/07 00:18:45;;;;;;;14.77;5.83;;;-6.90;99.90;;;;;;5037949;28;20406;-83
2021/12/07 00:21:13;;;;;;;10.13;5.80;;;-5.80;99.90;;;;;;5038519;28;20422;-80
2021/12/07 00:23:39;;;;;;;11.90;4.40;;;-4.60;99.90;;;;;;5037534;28;20398;-79
2021/12/07 00:26:05;;;;;;;15.43;5.57;;;-6.80;99.90;;;;;;5036851;28;20413;-76
2021/12/07 00:28:31;;;;;;;12.60;5.63;;;-5.30;99.90;;;;;;5036136;28;20180;-79
2021/12/07 00:31:08;;;;;;;11.43;4.50;;;-4.80;99.90;;;;;;5035643;28;20188;-76
2021/12/07 00:33:42;;;;;;;8.93;4.67;;;-4.80;99.90;;;;;;5036371;28;20420;-77
2021/12/07 00:36:08;;;;;;;10.93;4.97;;;-5.40;99.90;;;;;;5035721;28;20428;-76
2021/12/07 00:38:34;;;;;;;15.47;6.13;;;-6.80;99.90;;;;;;5036183;28;20405;-77
2021/12/07 00:41:02;;;;;;;11.80;5.07;;;-5.10;99.90;;;;;;5035994;28;20176;-81
2021/12/07 00:43:29;;;;;;;9.53;5.87;;;-7.40;99.90;;;;;;5037100;28;20417;-84
2021/12/07 00:45:57;;;;;;;9.60;5.57;;;-5.10;99.90;;;;;;5037676;28;20410;-80
2021/12/07 00:48:24;;;;;;;14.40;5.33;;;-6.40;99.90;;;;;;5036397;28;20927;-82
2021/12/07 00:50:50;;;;;;;14.07;5.13;;;-5.80;99.90;;;;;;5037826;28;20912;-84
2021/12/07 00:53:17;;;;;;;12.17;6.00;;;-4.50;99.90;;;;;;5041232;28;20425;-78
2021/12/07 00:55:47;;;;;;;8.57;4.63;;;-4.30;99.90;;;;;;5041056;28;20449;-83
2021/12/07 00:58:18;;;;;;;14.10;4.33;;;-5.10;99.90;;;;;;5041742;28;21146;-84
2021/12/07 01:00:51;;;;;;;9.40;4.47;;;-6.60;99.90;;;;;;5040420;28;20475;-83
2021/12/07 01:03:17;;;;;;;17.20;3.97;;;-5.90;99.90;;;;;;5041765;28;20414;-80
2021/12/07 01:05:49;;;;;;;11.67;4.03;;;-4.10;99.90;;;;;;5041047;28;20623;-77
2021/12/07 01:24:46;;;;;;;18.67;5.60;;;-6.70;99.90;;;;;;5041145;28;20493;-79
2021/12/07 01:27:18;;;;;;;10.73;4.80;;;-5.90;99.90;;;;;;5040275;28;20437;-78
2021/12/07 01:29:49;;;;;;;11.70;5.07;;;-6.10;99.90;;;;;;5041195;28;20165;-78
2021/12/07 01:32:38;;;;;;;14.60;5.03;;;-5.50;99.90;;;;;;5040571;28;20434;-81
2021/12/07 01:46:04;;;;;;;12.60;4.17;;;-6.80;99.90;;;;;;5040551;28;20448;-81
2021/12/07 01:59:38;;;;;;;10.77;3.23;;;-6.60;99.90;;;;;;5040548;28;20424;-80
2021/12/07 02:02:10;;;;;;;8.87;4.03;;;-6.10;99.90;;;;;;5039373;28;20489;-82
2021/12/07 02:04:38;;;;;;;9.10;3.17;;;-6.00;99.90;;;;;;5039191;28;20531;-80
2021/12/07 02:07:07;;;;;;;11.87;3.60;;;-5.70;99.90;;;;;;5039346;28;20811;-81
2021/12/07 02:09:35;;;;;;;9.80;3.43;;;-6.10;99.90;;;;;;5039432;28;20528;-79
2021/12/07 02:12:06;;;;;;;9.37;4.00;;;-5.90;99.90;;;;;;5039224;28;20481;-83
2021/12/07 02:14:32;;;;;;;3.53;3.23;;;-6.20;99.90;;;;;;5039332;28;20826;-80
2021/12/07 02:17:06;;;;;;;7.93;3.60;;;-4.30;99.90;;;;;;5038600;28;20414;-82
2021/12/07 02:19:32;;;;;;;10.73;3.27;;;-6.20;99.90;;;;;;5038844;28;20601;-81
2021/12/07 02:21:59;;;;;;;7.87;4.27;;;-4.90;99.90;;;;;;5039305;28;20432;-82
2021/12/07 02:24:25;;;;;;;6.90;3.87;;;-6.20;99.90;;;;;;5039215;28;20176;-80
2021/12/07 02:26:51;;;;;;;8.97;2.80;;;-4.40;99.90;;;;;;5038635;28;20425;-80
2021/12/07 02:29:19;;;;;;;8.30;3.50;;;-4.00;99.90;;;;;;5038081;28;20956;-82
2021/12/07 02:31:45;;;;;;;10.50;3.87;;;-6.10;99.90;;;;;;5037886;28;20461;-81
2021/12/07 02:34:12;;;;;;;7.90;2.70;;;-4.30;99.90;;;;;;5037604;28;20438;-79
2021/12/07 02:36:39;;;;;;;10.13;2.80;;;-6.00;99.90;;;;;;5036651;28;20729;-79
2021/12/07 02:39:07;;;;;;;13.70;3.53;;;-4.80;99.90;;;;;;5036879;28;20406;-79
2021/12/07 02:41:33;;;;;;;15.00;4.07;;;-4.60;99.90;;;;;;5038377;28;20428;-78
2021/12/07 02:44:00;;;;;;;9.93;3.70;;;-5.70;99.90;;;;;;5037782;28;20406;-76
2021/12/07 02:46:26;;;;;;;11.87;5.20;;;-5.30;99.90;;;;;;5037466;28;20402;-78
2021/12/07 02:48:52;;;;;;;9.07;3.47;;;-6.20;99.90;;;;;;5037804;28;20450;-79
2021/12/07 02:51:18;;;;;;;7.90;2.57;;;-4.00;99.90;;;;;;5038271;28;20574;-79
2021/12/07 02:53:45;;;;;;;7.33;2.70;;;-5.90;99.90;;;;;;5036251;28;20180;-77
2021/12/07 02:56:10;;;;;;;10.07;2.53;;;-4.40;99.90;;;;;;5036380;28;20892;-78
2021/12/07 02:58:41;;;;;;;10.50;3.40;;;-4.80;99.90;;;;;;5037806;28;20397;-81
2021/12/07 03:01:12;;;;;;;5.93;2.50;;;-2.80;99.90;;;;;;5037884;28;20607;-82
2021/12/07 03:03:49;;;;;;;10.03;2.93;;;-6.10;99.90;;;;;;5037742;28;20396;-80
2021/12/07 03:06:23;;;;;;;7.07;3.03;;;-3.90;99.90;;;;;;5036745;28;20721;-78
2021/12/07 03:27:57;;;;;;;4.00;1.83;;;-6.00;99.90;;;;;;5037245;28;20872;-79
2021/12/07 03:30:23;;;;;;;10.40;2.30;;;-6.20;99.90;;;;;;5037359;28;21109;-77
2021/12/07 03:32:50;;;;;;;6.73;3.07;;;-5.50;99.90;;;;;;5037306;28;20165;-79
2021/12/07 03:35:16;;;;;;;7.70;2.00;;;-6.20;99.90;;;;;;5037148;28;20418;-81
2021/12/07 03:37:42;;;;;;;12.90;4.10;;;-4.00;99.90;;;;;;5036278;28;20434;-78
2021/12/07 03:40:10;;;;;;;12.53;3.37;;;-6.80;99.90;;;;;;5037385;28;20829;-78
2021/12/07 03:42:36;;;;;;;11.93;3.40;;;-6.90;99.90;;;;;;5037003;28;20231;-78
2021/12/07 03:45:05;;;;;;;5.97;3.50;;;-4.80;99.90;;;;;;5036933;28;20496;-79
2021/12/07 03:47:31;;;;;;;6.93;2.60;;;-7.00;99.90;;;;;;5036169;28;20810;-77
2021/12/07 03:49:57;;;;;;;7.50;2.27;;;-7.30;99.90;;;;;;5036994;28;20453;-79
2021/12/07 03:52:24;;;;;;;9.03;2.60;;;-4.60;99.90;;;;;;5038031;28;20440;-76
2021/12/07 03:54:49;;;;;;;9.57;2.47;;;-4.70;99.90;;;;;;5037089;28;20782;-77
2021/12/07 03:57:15;;;;;;;8.50;3.07;;;-7.10;99.90;;;;;;5036864;28;20486;-80
2021/12/07 03:59:41;;;;;;;6.73;2.50;;;-7.10;99.90;;;;;;5036488;28;20599;-77
2021/12/07 04:02:07;;;;;;;4.90;1.87;;;-6.40;99.90;;;;;;5036480;28;20474;-77
2021/12/07 04:04:34;;;;;;;8.43;1.93;;;-4.70;99.90;;;;;;5036505;28;20227;-79
2021/12/07 04:07:00;;;;;;;6.43;2.20;;;-7.40;99.90;;;;;;5036685;28;20398;-79
2021/12/07 04:09:26;;;;;;;11.50;2.13;;;-5.80;99.90;;;;;;5036683;28;20402;-81
2021/12/07 04:11:53;;;;;;;3.90;2.00;;;-7.00;99.90;;;;;;5038118;28;20230;-81
2021/12/07 04:14:20;;;;;;;7.70;3.57;;;-4.60;99.90;;;;;;5036813;28;20402;-79
2021/12/07 04:16:46;;;;;;;10.50;2.60;;;-5.90;99.90;;;;;;5037423;28;20418;-77
2021/12/07 04:19:11;;;;;;;8.70;2.53;;;-7.30;99.90;;;;;;5037578;28;20437;-85
2021/12/07 04:21:37;;;;;;;4.87;2.63;;;-7.40;99.90;;;;;;5038964;28;20842;-84
2021/12/07 04:24:03;;;;;;;5.90;2.63;;;-4.80;99.90;;;;;;5039036;28;20608;-83
2021/12/07 04:26:31;;;;;;;5.50;1.90;;;-7.20;99.90;;;;;;5038530;28;20179;-80
2021/12/07 04:28:58;;;;;;;7.27;3.30;;;-7.50;99.90;;;;;;5038238;28;20176;-85
2021/12/07 04:31:24;;;;;;;19.60;4.43;;;-6.30;99.90;;;;;;5038543;28;20461;-83
2021/12/07 04:33:49;;;;;;;9.93;4.17;;;-7.20;99.90;;;;;;5038186;28;20405;-82
2021/12/07 04:36:15;;;;;;;12.20;2.73;;;-4.30;99.90;;;;;;5038367;28;20475;-84
2021/12/07 04:38:42;;;;;;;8.70;2.33;;;-7.30;99.90;;;;;;5038875;28;20169;-84
2021/12/07 04:41:08;;;;;;;8.47;2.20;;;-5.90;99.90;;;;;;5038317;28;20188;-86
2021/12/07 04:43:36;;;;;;;10.83;2.60;;;-6.30;99.90;;;;;;5039099;28;20412;-86
2021/12/07 04:46:23;;;;;;;16.07;2.77;;;-7.20;99.90;;;;;;5039640;28;20425;-86
2021/12/07 04:59:38;;;;;;;8.87;2.73;;;-7.70;99.90;;;;;;5036005;28;20437;-78
2021/12/07 05:02:04;;;;;;;10.27;2.77;;;-7.50;99.90;;;;;;5035665;28;20402;-79
2021/12/07 05:04:33;;;;;;;12.00;2.20;;;-5.90;99.90;;;;;;5036242;28;20418;-83
2021/12/07 05:07:12;;;;;;;6.30;2.20;;;-5.20;99.90;;;;;;5037300;28;20488;-84
2021/12/07 05:12:22;;;;;;;8.33;2.90;;;-7.20;99.90;;;;;;5038103;28;20535;-86
2021/12/07 05:14:48;;;;;;;9.37;2.87;;;-7.40;99.90;;;;;;5038819;28;20169;-88
2021/12/07 05:25:34;;;;;;;8.43;2.83;;;-5.90;99.90;;;;;;5039744;28;20787;-87
2021/12/07 05:38:57;;;;;;;6.00;4.00;;;-6.60;99.90;;;;;;5042316;28;20459;-85
2021/12/07 05:41:24;;;;;;;10.10;2.47;;;-7.50;99.90;;;;;;5042494;28;20436;-86
2021/12/07 05:43:50;;;;;;;10.43;3.43;;;-5.70;99.90;;;;;;5042618;28;20413;-82
2021/12/07 05:46:16;;;;;;;9.03;3.17;;;-6.20;99.90;;;;;;5042397;28;20436;-83
2021/12/07 05:48:44;;;;;;;6.50;2.70;;;-7.50;99.90;;;;;;5041342;28;20430;-86
2021/12/07 05:51:10;;;;;;;9.17;2.70;;;-6.30;99.90;;;;;;5042381;28;20458;-87
2021/12/07 05:53:35;;;;;;;8.00;2.50;;;-5.50;99.90;;;;;;5042611;28;20437;-86
2021/12/07 05:56:03;;;;;;;9.63;3.23;;;-4.90;99.90;;;;;;5041141;28;20263;-86
2021/12/07 05:58:29;;;;;;;7.97;2.70;;;-6.30;99.90;;;;;;5041183;28;20176;-84
2021/12/07 06:00:57;;;;;;;11.40;4.53;;;-5.90;99.90;;;;;;5042952;28;20663;-87
2021/12/07 06:03:25;;;;;;;8.70;3.47;;;-7.40;99.90;;;;;;5042736;28;20173;-84
2021/12/07 06:05:53;;;;;;;9.17;3.03;;;-6.10;99.90;;;;;;5042174;28;20412;-84
2021/12/07 06:08:19;;;;;;;4.77;2.37;;;-7.70;99.90;;;;;;5041461;28;20834;-85
2021/12/07 06:10:45;;;;;;;16.07;4.57;;;-7.40;99.90;;;;;;5042050;28;20491;-86
2021/12/07 06:13:11;;;;;;;9.00;3.30;;;-7.20;99.90;;;;;;5041859;28;20466;-88
2021/12/07 06:15:39;;;;;;;6.97;2.53;;;-6.90;99.90;;;;;;5042925;28;20172;-88
2021/12/07 06:18:05;;;;;;;8.67;2.50;;;-5.60;99.90;;;;;;5042180;28;20424;-86
2021/12/07 06:20:32;;;;;;;13.47;2.80;;;-5.90;99.90;;;;;;5041912;28;20417;-86
2021/12/07 06:22:57;;;;;;;8.77;2.50;;;-7.50;99.90;;;;;;5042165;28;20437;-84
2021/12/07 06:25:23;;;;;;;8.53;2.90;;;-7.30;99.90;;;;;;5041590;28;20421;-85
2021/12/07 06:27:49;;;;;;;14.10;4.77;;;-5.30;99.90;;;;;;5040546;28;20181;-82
2021/12/07 06:30:16;;;;;;;7.37;2.40;;;-5.20;99.90;;;;;;5041467;28;20456;-87
2021/12/07 06:32:42;;;;;;;11.10;2.70;;;-7.30;99.90;;;;;;5041020;28;20169;-87
2021/12/07 06:35:09;;;;;;;7.27;2.93;;;-7.80;99.90;;;;;;5039693;28;20557;-85
2021/12/07 06:37:35;;;;;;;11.63;2.80;;;-4.50;99.90;;;;;;5039745;28;20510;-80
2021/12/07 06:40:07;;;;;;;12.60;6.03;;;-5.40;99.90;;;;;;5040223;28;20751;-77
2021/12/07 06:42:33;;;;;;;7.53;3.33;;;-7.40;99.90;;;;;;5040186;28;20271;-81
2021/12/07 06:44:58;;;;;;;9.80;3.10;;;-7.40;99.90;;;;;;5040213;28;20426;-79
2021/12/07 06:47:24;;;;;;;9.77;2.87;;;-7.60;99.90;;;;;;5040048;28;20552;-78
2021/12/07 06:49:50;;;;;;;5.13;3.03;;;-7.80;99.90;;;;;;5038883;28;20255;-80
2021/12/07 06:52:16;;;;;;;13.17;2.77;;;-7.50;99.90;;;;;;5040574;28;20240;-84
2021/12/07 06:54:42;;;;;;;17.00;3.50;;;-5.00;99.90;;;;;;5039851;28;20183;-81
2021/12/07 06:57:07;;;;;;;7.53;2.53;;;-5.90;99.90;;;;;;5039585;28;20207;-85
2021/12/07 06:59:33;;;;;;;10.20;3.87;;;-7.10;99.90;;;;;;5040015;28;20608;-82
2021/12/07 07:01:59;;;;;;;10.13;3.43;;;-6.00;99.90;;;;;;5039311;28;20180;-83
2021/12/07 07:04:25;;;;;;;9.43;3.53;;;-6.00;99.90;;;;;;5031045;28;20886;-78
2021/12/07 07:06:51;;;;;;;13.83;3.83;;;-9.00;99.90;;;;;;5038081;28;20252;-80
2021/12/07 07:09:17;;;;;;;10.07;3.53;;;-7.70;99.90;;;;;;5036882;28;20188;-81
2021/12/07 07:11:44;;;;;;;12.30;4.87;;;-7.80;99.90;;;;;;5036300;28;20461;-81
2021/12/07 07:14:10;;;;;;;18.80;5.53;;;-7.60;99.90;;;;;;5038805;28;20943;-79
2021/12/07 07:16:36;;;;;;;13.23;3.63;;;-8.20;99.90;;;;;;5037362;28;20829;-80
2021/12/07 07:19:02;;;;;;;17.57;3.77;;;-5.60;99.90;;;;;;5037996;28;20409;-81
2021/12/07 07:21:28;;;;;;;10.50;3.30;;;-7.50;99.90;;;;;;5037846;28;20863;-77
2021/12/07 07:23:54;;;;;;;8.93;3.00;;;-7.50;99.90;;;;;;5036541;28;20526;-76
2021/12/07 07:26:21;;;;;;;12.43;3.20;;;-5.70;99.90;;;;;;5035932;28;20184;-75
2021/12/07 07:28:47;;;;;;;7.43;3.97;;;-4.90;99.90;;;;;;5036656;28;20417;-77
2021/12/07 07:31:13;;;;;;;19.03;8.27;;;-5.20;99.90;;;;;;5036739;28;20458;-76
2021/12/07 07:33:39;;;;;;;13.83;4.57;;;-6.90;99.90;;;;;;5035599;28;20463;-78
2021/12/07 07:36:05;;;;;;;13.10;4.60;;;-6.70;99.90;;;;;;5035739;28;20516;-79
2021/12/07 07:38:32;;;;;;;10.47;4.20;;;-5.30;99.90;;;;;;5036759;28;20416;-76
2021/12/07 07:40:58;;;;;;;32.43;6.47;;;-6.60;99.90;;;;;;5035807;28;20837;-76
2021/12/07 07:43:25;;;;;;;11.53;5.10;;;-5.10;99.90;;;;;;5035862;28;20947;-79
2021/12/07 07:45:53;;;;;;;12.27;3.53;;;-6.60;99.90;;;;;;5036772;28;20402;-77
2021/12/07 07:48:20;;;;;;;10.37;3.40;;;-5.50;99.90;;;;;;5036386;28;20931;-75
2021/12/07 07:50:48;;;;;;;14.23;4.40;;;-5.20;99.90;;;;;;5029150;28;20473;-75
2021/12/07 07:53:17;;;;;;;8.40;4.07;;;-5.00;99.90;;;;;;5029831;28;20394;-76
2021/12/07 07:55:43;;;;;;;14.47;6.33;;;-6.40;99.90;;;;;;5035781;28;20414;-79
2021/12/07 07:58:13;;;;;;;11.20;4.00;;;-4.70;99.90;;;;;;5036108;28;20428;-76
2021/12/07 08:00:42;;;;;;;18.90;3.87;;;-4.10;99.90;;;;;;5035449;28;20522;-78
2021/12/07 08:03:09;;;;;;;13.47;4.20;;;-5.50;99.90;;;;;;5036460;28;20714;-74
2021/12/07 08:05:35;;;;;;;10.37;3.77;;;-5.50;99.90;;;;;;5034583;28;20416;-74
2021/12/07 08:08:01;;;;;;;10.77;3.80;;;-6.30;99.90;;;;;;5040870;28;20429;-85
2021/12/07 08:10:28;;;;;;;10.43;3.90;;;-6.30;99.90;;;;;;5038660;28;20453;-81
2021/12/07 08:13:01;;;;;;;20.67;3.77;;;-5.10;99.90;;;;;;5037165;28;20409;-81
2021/12/07 08:15:28;;;;;;;17.97;3.73;;;-4.10;99.90;;;;;;5037741;28;20491;-81
2021/12/07 08:17:55;;;;;;;15.33;4.80;;;-5.20;99.90;;;;;;5035929;28;20414;-81
2021/12/07 08:20:21;;;;;;;10.93;4.07;;;-6.40;99.90;;;;;;5029062;28;20434;-75
2021/12/07 08:22:47;;;;;;;13.03;4.43;;;-6.50;99.90;;;;;;5016072;28;20831;-75
2021/12/07 08:25:14;;;;;;;21.00;5.47;;;-6.50;99.90;;;;;;5016322;28;20489;-74
2021/12/07 08:27:40;;;;;;;10.13;4.27;;;-6.40;99.90;;;;;;5016046;28;20264;-78
2021/12/07 08:30:09;;;;;;;16.20;4.97;;;-6.30;99.90;;;;;;5034056;28;20429;-75
2021/12/07 08:32:35;;;;;;;13.90;4.13;;;-6.10;99.90;;;;;;5035500;28;20477;-78
2021/12/07 08:35:01;;;;;;;16.30;6.27;;;-6.20;99.90;;;;;;5035939;28;20422;-76
2021/12/07 08:37:27;;;;;;;15.20;5.10;;;-6.20;99.90;;;;;;5035935;28;20165;-74
2021/12/07 08:39:53;;;;;;;11.63;5.30;;;-6.10;99.90;;;;;;5031736;28;20450;-72
2021/12/07 08:42:19;;;;;;;11.03;5.47;;;-4.00;99.90;;;;;;5034011;28;20755;-74
2021/12/07 08:44:46;;;;;;;14.20;4.70;;;-6.10;99.90;;;;;;5035511;28;20243;-72
2021/12/07 08:47:12;;;;;;;8.63;4.20;;;-4.40;99.90;;;;;;5034511;28;20431;-74
2021/12/07 08:49:43;;;;;;;10.67;3.73;;;-4.60;99.90;;;;;;5031278;28;20526;-73
2021/12/07 08:52:10;;;;;;;11.10;3.33;;;-5.90;99.90;;;;;;5033871;28;20204;-73
2021/12/07 08:59:54;;;;;;;11.80;4.47;;;-5.70;99.90;;;;;;5016268;28;20412;-72
2021/12/07 09:02:26;;;;;;;11.60;4.70;;;-5.30;99.90;;;;;;5034092;28;20402;-71
2021/12/07 09:04:53;;;;;;;16.80;4.97;;;-5.50;99.90;;;;;;5034093;28;20453;-72
2021/12/07 09:07:23;;;;;;;7.77;4.10;;;-5.00;99.90;;;;;;5035325;28;20390;-74
2021/12/07 09:09:50;;;;;;;26.33;12.73;;;-6.70;99.90;;;;;;5032779;28;20471;-73
2021/12/07 09:12:18;;;;;;;20.10;8.63;;;-6.80;99.90;;;;;;5032415;28;20446;-74
2021/12/07 09:14:45;;;;;;;15.87;5.83;;;-6.50;99.90;;;;;;5037543;28;20722;-72
2021/12/07 09:17:13;;;;;;;13.57;5.30;;;-6.70;99.90;;;;;;5033133;28;20584;-73
2021/12/07 09:19:40;;;;;;;14.97;4.70;;;-6.50;99.90;;;;;;5032087;28;20452;-77
2021/12/07 09:22:06;;;;;;;19.83;7.43;;;-5.40;99.90;;;;;;5018718;28;20441;-73
2021/12/07 09:24:33;;;;;;;14.03;9.00;;;-6.70;99.90;;;;;;5031699;28;20410;-73
2021/12/07 09:27:00;;;;;;;10.83;5.57;;;-7.00;99.90;;;;;;5036522;28;20394;-71
2021/12/07 09:29:26;;;;;;;11.17;3.70;;;-6.40;99.90;;;;;;5033184;28;20430;-71
2021/12/07 09:31:52;;;;;;;9.70;3.83;;;-5.40;99.90;;;;;;5037195;28;20441;-72
2021/12/07 09:34:18;;;;;;;9.80;3.60;;;-5.30;99.90;;;;;;5038054;28;20929;-73
2021/12/07 09:36:45;;;;;;;11.33;3.40;;;-6.70;99.90;;;;;;5021250;28;20200;-72
2021/12/07 09:39:15;;;;;;;10.00;3.80;;;-6.70;99.90;;;;;;5018952;28;20430;-72
2021/12/07 09:41:41;;;;;;;10.70;4.07;;;-6.40;99.90;;;;;;5031560;28;20521;-72
2021/12/07 09:44:08;;;;;;;14.77;4.67;;;-5.30;99.90;;;;;;5036143;28;20405;-72
2021/12/07 09:46:35;;;;;;;7.70;2.93;;;-6.60;99.90;;;;;;5036656;28;20505;-72
2021/12/07 09:49:02;;;;;;;12.60;4.20;;;-5.20;99.90;;;;;;5027144;28;20925;-72
2021/12/07 09:51:28;;;;;;;11.07;3.27;;;-5.40;99.90;;;;;;5028982;28;20519;-73
2021/12/07 09:53:56;;;;;;;8.27;3.23;;;-5.90;99.90;;;;;;5033866;28;20421;-73
2021/12/07 09:56:23;;;;;;;12.13;5.07;;;-6.40;99.90;;;;;;5051720;28;20432;-72
2021/12/07 09:58:50;;;;;;;41.33;22.67;;;-5.90;99.90;;;;;;5036367;28;20932;-74
2021/12/07 10:01:17;;;;;;;43.00;25.13;;;-6.40;99.90;;;;;;5027065;28;20427;-72
2021/12/07 10:03:44;;;;;;;22.60;12.07;;;-6.40;99.90;;;;;;5034701;28;20405;-71
2021/12/07 10:06:11;;;;;;;12.83;7.10;;;-5.80;99.90;;;;;;5036682;28;20394;-72
2021/12/07 10:08:37;;;;;;;23.53;14.80;;;-6.50;99.90;;;;;;5037159;28;20996;-74
2021/12/07 10:11:04;;;;;;;12.60;6.93;;;-6.50;99.90;;;;;;5032661;28;20457;-76
2021/12/07 10:13:31;;;;;;;16.00;9.03;;;-6.50;99.90;;;;;;5034757;28;20493;-83
2021/12/07 10:16:00;;;;;;;18.67;10.63;;;-6.10;99.90;;;;;;5038193;28;20578;-75
2021/12/07 10:18:31;;;;;;;12.70;8.33;;;-6.60;99.90;;;;;;5033290;28;20740;-77
2021/12/07 10:21:00;;;;;;;13.07;5.80;;;-5.50;99.90;;;;;;5036195;28;20461;-73
2021/12/07 10:23:37;;;;;;;6.27;3.87;;;-6.40;99.90;;;;;;5035402;28;20437;-82
2021/12/07 10:26:16;;;;;;;22.00;9.93;;;-6.50;99.90;;;;;;5035801;28;20417;-74
2021/12/07 10:28:45;;;;;;;16.90;13.53;;;-7.00;99.90;;;;;;5035448;28;20837;-78
2021/12/07 10:31:11;;;;;;;20.57;11.87;;;-4.60;99.90;;;;;;5034423;28;20536;-75
2021/12/07 10:33:42;;;;;;;13.87;3.33;;;-5.80;99.90;;;;;;5034523;28;20789;-74
2021/12/07 10:36:19;;;;;;;9.67;6.13;;;-6.70;99.90;;;;;;5035487;28;20235;-73
2021/12/07 10:39:13;;;;;;;11.93;3.87;;;-7.00;99.90;;;;;;5035647;28;20436;-75
2021/12/07 10:41:49;;;;;;;8.13;4.13;;;-7.10;99.90;;;;;;5028706;28;20431;-75
2021/12/07 10:44:18;;;;;;;7.70;4.20;;;-7.00;99.90;;;;;;5027081;28;20429;-73
2021/12/07 10:46:51;;;;;;;10.53;3.80;;;-6.90;99.90;;;;;;5036472;28;20391;-73
2021/12/07 10:49:17;;;;;;;8.50;3.80;;;-5.80;99.90;;;;;;5024032;28;20445;-73
2021/12/07 10:51:56;;;;;;;7.73;3.60;;;-6.50;99.90;;;;;;5026392;28;20456;-74
2021/12/07 10:54:24;;;;;;;14.50;5.57;;;-6.10;99.90;;;;;;5018133;28;20320;-72
2021/12/07 10:56:50;;;;;;;8.43;3.57;;;-6.00;99.90;;;;;;5031625;28;20475;-71
2021/12/07 10:59:17;;;;;;;10.07;5.53;;;-6.10;99.90;;;;;;5017355;28;20413;-72
2021/12/07 11:01:45;;;;;;;7.80;3.57;;;-5.50;99.90;;;;;;5024855;28;20415;-72
2021/12/07 11:04:38;;;;;;;10.27;7.53;;;-5.70;99.90;;;;;;5017019;28;20421;-72
2021/12/07 11:07:16;;;;;;;7.20;3.93;;;-4.50;99.90;;;;;;5020043;28;20423;-71
2021/12/07 11:10:17;;;;;;;17.27;12.77;;;-5.60;99.90;;;;;;5022654;28;20564;-72
2021/12/07 11:13:05;;;;;;;12.13;5.57;;;-4.10;99.90;;;;;;5030197;28;20417;-71
2021/12/07 11:15:33;;;;;;;8.10;2.97;;;-5.40;99.90;;;;;;5036403;28;20399;-72
2021/12/07 11:18:09;;;;;;;6.47;3.47;;;-6.10;99.90;;;;;;5031047;28;20417;-74
2021/12/07 11:20:36;;;;;;;7.30;3.60;;;-5.20;99.90;;;;;;5032781;28;20810;-76
2021/12/07 11:23:11;;;;;;;12.17;4.53;;;-5.40;99.90;;;;;;5029235;28;20531;-72
2021/12/07 11:31:43;;;;;;;9.87;3.77;;;-6.50;99.90;;;;;;5044922;28;20497;-75
2021/12/07 11:34:09;;;;;;;6.67;2.77;;;-6.50;99.90;;;;;;5035966;28;20452;-71
2021/12/07 11:36:47;;;;;;;5.63;2.47;;;-4.70;99.90;;;;;;5036345;28;20413;-71
2021/12/07 11:39:32;;;;;;;7.83;3.23;;;-5.50;99.90;;;;;;5024095;28;20579;-71
2021/12/07 11:42:09;;;;;;;6.73;3.63;;;-5.70;99.90;;;;;;5034493;28;20452;-72
2021/12/07 11:44:45;;;;;;;5.43;4.20;;;-5.20;99.90;;;;;;5034942;28;20508;-79
2021/12/07 11:47:11;;;;;;;6.00;3.27;;;-5.80;99.90;;;;;;5035497;28;20415;-72
2021/12/07 11:49:38;;;;;;;7.50;3.93;;;-5.60;99.90;;;;;;5036214;28;20451;-71
2021/12/07 11:52:06;;;;;;;10.97;4.70;;;-6.30;99.90;;;;;;5035826;28;20195;-72
2021/12/07 11:54:40;;;;;;;7.90;4.10;;;-6.20;99.90;;;;;;5036586;28;20399;-81
2021/12/07 11:57:11;;;;;;;9.80;3.87;;;-6.10;99.90;;;;;;5036813;28;20706;-71
2021/12/07 11:59:38;;;;;;;12.10;4.00;;;-5.50;99.90;;;;;;5054638;28;20396;-78
2021/12/07 12:02:05;;;;;;;9.90;4.13;;;-5.50;99.90;;;;;;5038269;28;20447;-72
2021/12/07 12:04:33;;;;;;;9.30;5.13;;;-4.80;99.90;;;;;;5035679;28;20439;-76
2021/12/07 12:07:00;;;;;;;7.00;5.17;;;-4.80;99.90;;;;;;5035662;28;20848;-78
2021/12/07 12:09:27;;;;;;;12.83;7.13;;;-5.60;99.90;;;;;;5034622;28;20900;-77
2021/12/07 12:12:11;;;;;;;82.87;42.57;;;-7.10;99.90;;;;;;5033478;28;20467;-76
2021/12/07 12:14:53;;;;;;;20.97;9.73;;;-6.40;99.90;;;;;;5034700;28;20439;-78
2021/12/07 12:17:45;;;;;;;18.57;7.07;;;-3.50;99.90;;;;;;5034812;28;20758;-78
2021/12/07 12:20:11;;;;;;;11.50;7.83;;;-5.90;99.90;;;;;;5031710;28;20437;-78
2021/12/07 12:22:45;;;;;;;12.13;8.20;;;-8.00;99.90;;;;;;5034242;28;20724;-81
2021/12/07 12:25:15;;;;;;;9.43;4.47;;;-5.70;99.90;;;;;;5035196;28;20176;-80
2021/12/07 12:27:43;;;;;;;9.70;5.00;;;-5.00;99.90;;;;;;5034199;28;20751;-80
2021/12/07 12:30:39;;;;;;;9.67;3.47;;;-5.60;99.90;;;;;;5034831;28;20441;-77
2021/12/07 12:33:11;;;;;;;6.13;3.47;;;-5.70;99.90;;;;;;5035799;28;20484;-79
2021/12/07 12:35:52;;;;;;;13.40;5.40;;;-5.90;99.90;;;;;;5034044;28;20447;-80
2021/12/07 12:38:31;;;;;;;5.53;3.53;;;-4.20;99.90;;;;;;5034435;28;20829;-77
2021/12/07 12:41:09;;;;;;;4.20;2.90;;;-5.30;99.90;;;;;;5033133;28;20560;-79
2021/12/07 12:43:52;;;;;;;5.80;3.03;;;-6.00;99.90;;;;;;5035381;28;20708;-79
2021/12/07 12:46:22;;;;;;;8.80;3.83;;;-5.80;99.90;;;;;;5034890;28;20397;-79
2021/12/07 12:48:53;;;;;;;7.77;3.20;;;-3.90;99.90;;;;;;5039332;28;20456;-78
2021/12/07 12:51:19;;;;;;;5.20;3.63;;;-4.70;99.90;;;;;;5033564;28;20913;-75
2021/12/07 12:53:47;;;;;;;4.07;2.80;;;-6.00;99.90;;;;;;5039203;28;20401;-78
2021/12/07 12:56:20;;;;;;;14.70;3.73;;;-4.20;99.90;;;;;;5037778;28;20414;-77
2021/12/07 12:59:00;;;;;;;6.90;3.40;;;-6.40;99.90;;;;;;5039353;28;20171;-77
2021/12/07 13:01:35;;;;;;;12.63;7.43;;;-6.30;99.90;;;;;;5038083;28;20409;-78
2021/12/07 13:04:06;;;;;;;189.17;78.73;;;-6.90;99.90;;;;;;5038656;28;20419;-84
2021/12/07 13:06:32;;;;;;;52.10;26.23;;;-6.60;99.90;;;;;;5040946;28;20409;-82
2021/12/07 13:09:06;;;;;;;8.63;5.37;;;-6.40;99.90;;;;;;5039094;28;20417;-82
2021/12/07 13:11:52;;;;;;;6.90;3.47;;;-6.20;99.90;;;;;;5038323;28;20456;-79
2021/12/07 13:14:24;;;;;;;6.57;3.30;;;-5.50;99.90;;;;;;5039489;28;20814;-80
2021/12/07 13:17:10;;;;;;;10.33;3.50;;;-6.00;99.90;;;;;;5039340;28;20409;-83
2021/12/07 13:20:05;;;;;;;7.20;3.23;;;-6.30;99.90;;;;;;5042020;28;20428;-79
2021/12/07 13:22:45;;;;;;;9.53;4.10;;;-3.80;99.90;;;;;;5037609;28;20400;-79
2021/12/07 13:25:16;;;;;;;11.17;4.37;;;-4.50;99.90;;;;;;5037867;28;20472;-78
2021/12/07 13:28:30;;;;;;;7.27;4.50;;;-3.40;99.90;;;;;;5038408;28;20445;-78
2021/12/07 13:31:03;;;;;;;6.07;4.60;;;-5.50;99.90;;;;;;5039323;28;20459;-79
2021/12/07 13:33:30;;;;;;;24.60;4.67;;;-4.90;99.90;;;;;;5039495;28;20499;-77
2021/12/07 13:35:55;;;;;;;19.77;8.23;;;-4.20;99.90;;;;;;5037383;28;20755;-78
2021/12/07 13:38:39;;;;;;;12.73;5.83;;;-4.30;99.90;;;;;;5038608;28;20396;-78
2021/12/07 13:41:14;;;;;;;8.57;4.10;;;-4.20;99.90;;;;;;5037911;28;20163;-77
2021/12/07 13:43:47;;;;;;;6.33;4.67;;;-3.70;99.90;;;;;;5037421;28;20415;-76
2021/12/07 13:46:26;;;;;;;6.80;3.87;;;-3.10;99.90;;;;;;5038455;28;20417;-77
2021/12/07 13:49:03;;;;;;;12.53;5.63;;;-3.90;99.90;;;;;;5038205;28;20450;-76
2021/12/07 13:51:29;;;;;;;7.50;4.30;;;-4.80;99.90;;;;;;5020812;28;20470;-76
2021/12/07 13:53:55;;;;;;;9.83;5.50;;;-4.20;99.90;;;;;;5028677;28;20727;-80
2021/12/07 13:56:21;;;;;;;14.80;3.80;;;-4.40;99.90;;;;;;5020691;28;20175;-79
2021/12/07 13:59:08;;;;;;;6.30;5.17;;;-3.30;99.90;;;;;;5037205;28;20173;-80
2021/12/07 14:01:37;;;;;;;6.13;3.93;;;-4.30;99.90;;;;;;5038213;28;20396;-78
2021/12/07 14:04:04;;;;;;;5.43;4.13;;;-4.30;99.90;;;;;;5037474;28;20423;-80
2021/12/07 14:06:31;;;;;;;8.70;2.50;;;-4.80;99.90;;;;;;5037620;28;20430;-79
2021/12/07 14:09:09;;;;;;;7.40;4.33;;;-4.10;99.90;;;;;;5038375;28;20406;-77
2021/12/07 14:11:36;;;;;;;5.10;2.57;;;-2.80;99.90;;;;;;5028331;28;20509;-77
2021/12/07 14:14:11;;;;;;;8.17;2.83;;;-3.20;99.90;;;;;;5019085;28;20695;-79
2021/12/07 14:16:38;;;;;;;5.17;3.00;;;-4.00;99.90;;;;;;5018469;28;20405;-79
2021/12/07 14:19:04;;;;;;;5.70;2.97;;;-3.20;99.90;;;;;;5018737;28;20912;-81
2021/12/07 14:21:30;;;;;;;6.77;2.93;;;-3.80;99.90;;;;;;5035682;28;20875;-80
2021/12/07 14:24:08;;;;;;;3.90;2.67;;;-3.60;99.90;;;;;;5039266;28;20395;-79
2021/12/07 14:26:38;;;;;;;13.83;2.87;;;-2.40;99.90;;;;;;5040051;28;20779;-81
2021/12/07 14:29:13;;;;;;;11.47;2.77;;;-3.50;99.90;;;;;;5037548;28;20780;-81
2021/12/07 14:31:49;;;;;;;4.67;2.30;;;-3.30;99.90;;;;;;5035878;28;20906;-80
2021/12/07 14:34:31;;;;;;;2.73;2.47;;;-4.10;99.90;;;;;;5036450;28;20716;-77